sensor_id;sensor_type;location;lat;lon;timestamp;pressure;altitude;pressure_sealevel;temperature;humidity
44297;BME280;51842;47.450;8.654;2022-10-22T00:01:04;95434.66;;;12.69;100.00
44297;BME280;51842;47.450;8.654;2022-10-22T00:03:33;95448.84;;;12.65;100.00
44297;BME280;51842;47.450;8.654;2022-10-22T00:06:08;95438.34;;;12.44;100.00
44297;BME280;51842;47.450;8.654;2022-10-22T00:08:33;95450.38;;;12.42;100.00
44297;BME280;51842;47.450;8.654;2022-10-22T00:11:19;95438.81;;;12.52;100.00
44297;BME280;51842;47.450;8.654;2022-10-22T00:13:48;95449.19;;;12.53;100.00
44297;BME280;51842;47.450;8.654;2022-10-22T00:16:17;95464.41;;;12.58;100.00
44297;BME280;51842;47.450;8.654;2022-10-22T00:18:42;95466.28;;;12.57;100.00
44297;BME280;51842;47.450;8.654;2022-10-22T00:21:09;95464.97;;;12.55;100.00
44297;BME280;51842;47.450;8.654;2022-10-22T00:23:48;95475.34;;;12.56;100.00
44297;BME280;51842;47.450;8.654;2022-10-22T00:26:22;95489.25;;;12.58;100.00
44297;BME280;51842;47.450;8.654;2022-10-22T00:28:54;95501.81;;;12.58;100.00
44297;BME280;51842;47.450;8.654;2022-10-22T00:31:20;95489.25;;;12.58;100.00
44297;BME280;51842;47.450;8.654;2022-10-22T00:33:47;95503.16;;;12.55;100.00
44297;BME280;51842;47.450;8.654;2022-10-22T00:36:19;95506.63;;;12.56;100.00
44297;BME280;51842;47.450;8.654;2022-10-22T00:38:47;95497.81;;;12.55;100.00
44297;BME280;51842;47.450;8.654;2022-10-22T00:41:13;95502.59;;;12.58;100.00
44297;BME280;51842;47.450;8.654;2022-10-22T00:44:04;95513.81;;;12.60;100.00
44297;BME280;51842;47.450;8.654;2022-10-22T00:46:36;95517.56;;;12.59;100.00
44297;BME280;51842;47.450;8.654;2022-10-22T00:49:05;95523.72;;;12.60;100.00
44297;BME280;51842;47.450;8.654;2022-10-22T00:51:33;95519.97;;;12.61;100.00
44297;BME280;51842;47.450;8.654;2022-10-22T00:54:08;95513.81;;;12.60;100.00
44297;BME280;51842;47.450;8.654;2022-10-22T00:56:37;95523.44;;;12.61;100.00
44297;BME280;51842;47.450;8.654;2022-10-22T00:59:03;95523.97;;;12.58;100.00
44297;BME280;51842;47.450;8.654;2022-10-22T01:01:30;95523.72;;;12.60;100.00
44297;BME280;51842;47.450;8.654;2022-10-22T01:03:57;95524.78;;;12.59;100.00
44297;BME280;51842;47.450;8.654;2022-10-22T01:06:29;95533.81;;;12.63;100.00
44297;BME280;51842;47.450;8.654;2022-10-22T01:09:15;95531.16;;;12.63;100.00
44297;BME280;51842;47.450;8.654;2022-10-22T01:12:09;95516.72;;;12.64;100.00
44297;BME280;51842;47.450;8.654;2022-10-22T01:20:59;95500.69;;;12.64;100.00
44297;BME280;51842;47.450;8.654;2022-10-22T01:30:14;95484.13;;;12.62;100.00
44297;BME280;51842;47.450;8.654;2022-10-22T01:32:50;95466.28;;;12.57;100.00
44297;BME280;51842;47.450;8.654;2022-10-22T01:35:25;95465.75;;;12.55;100.00
44297;BME280;51842;47.450;8.654;2022-10-22T01:37:57;95457.19;;;12.58;100.00
44297;BME280;51842;47.450;8.654;2022-10-22T01:40:26;95453.16;;;12.61;100.00
44297;BME280;51842;47.450;8.654;2022-10-22T01:42:59;95451.50;;;12.65;100.00
44297;BME280;51842;47.450;8.654;2022-10-22T01:45:28;95442.69;;;12.64;100.00
44297;BME280;51842;47.450;8.654;2022-10-22T01:52:06;95456.53;;;12.71;100.00
44297;BME280;51842;47.450;8.654;2022-10-22T01:58:18;95471.50;;;12.72;100.00
44297;BME280;51842;47.450;8.654;2022-10-22T02:01:08;95479.22;;;12.74;100.00
44297;BME280;51842;47.450;8.654;2022-10-22T02:03:54;95476.78;;;12.78;100.00
44297;BME280;51842;47.450;8.654;2022-10-22T02:06:25;95476.53;;;12.79;100.00
44297;BME280;51842;47.450;8.654;2022-10-22T02:08:56;95478.09;;;12.80;100.00
44297;BME280;51842;47.450;8.654;2022-10-22T02:11:23;95468.50;;;12.79;100.00
44297;BME280;51842;47.450;8.654;2022-10-22T02:13:55;95478.91;;;12.81;100.00
44297;BME280;51842;47.450;8.654;2022-10-22T02:16:55;95489.31;;;12.82;100.00
44297;BME280;51842;47.450;8.654;2022-10-22T02:19:34;95485.56;;;12.83;100.00
44297;BME280;51842;47.450;8.654;2022-10-22T02:22:06;95484.47;;;12.84;100.00
44297;BME280;51842;47.450;8.654;2022-10-22T02:24:35;95482.59;;;12.85;100.00
44297;BME280;51842;47.450;8.654;2022-10-22T02:30:10;95488.47;;;12.87;100.00
44297;BME280;51842;47.450;8.654;2022-10-22T02:34:08;95489.81;;;12.84;100.00
44297;BME280;51842;47.450;8.654;2022-10-22T02:36:07;95503.94;;;12.90;100.00
44297;BME280;51842;47.450;8.654;2022-10-22T02:38:34;95489.78;;;12.89;100.00
44297;BME280;51842;47.450;8.654;2022-10-22T02:41:02;95499.13;;;12.92;100.00
44297;BME280;51842;47.450;8.654;2022-10-22T02:43:28;95499.97;;;12.87;100.00
44297;BME280;51842;47.450;8.654;2022-10-22T02:45:54;95493.03;;;12.86;100.00
44297;BME280;51842;47.450;8.654;2022-10-22T02:48:20;95493.56;;;12.88;100.00
44297;BME280;51842;47.450;8.654;2022-10-22T02:50:46;95493.59;;;12.83;100.00
44297;BME280;51842;47.450;8.654;2022-10-22T02:53:14;95501.63;;;12.78;100.00
44297;BME280;51842;47.450;8.654;2022-10-22T02:55:49;95503.75;;;12.81;100.00
44297;BME280;51842;47.450;8.654;2022-10-22T02:58:15;95496.25;;;12.83;100.00
44297;BME280;51842;47.450;8.654;2022-10-22T03:00:47;95503.97;;;12.85;100.00
44297;BME280;51842;47.450;8.654;2022-10-22T03:03:16;95514.66;;;12.85;100.00
44297;BME280;51842;47.450;8.654;2022-10-22T03:05:45;95516.31;;;12.81;100.00
44297;BME280;51842;47.450;8.654;2022-10-22T03:08:13;95519.00;;;12.81;100.00
44297;BME280;51842;47.450;8.654;2022-10-22T03:10:45;95516.31;;;12.81;100.00
44297;BME280;51842;47.450;8.654;2022-10-22T03:13:11;95523.28;;;12.82;100.00
44297;BME280;51842;47.450;8.654;2022-10-22T03:15:43;95527.53;;;12.83;100.00
44297;BME280;51842;47.450;8.654;2022-10-22T03:18:12;95513.66;;;12.81;100.00
44297;BME280;51842;47.450;8.654;2022-10-22T03:20:43;95524.63;;;12.79;100.00
44297;BME280;51842;47.450;8.654;2022-10-22T03:23:16;95524.06;;;12.82;100.00
44297;BME280;51842;47.450;8.654;2022-10-22T03:25:48;95531.31;;;12.82;100.00
44297;BME280;51842;47.450;8.654;2022-10-22T03:28:16;95517.66;;;12.78;100.00
44297;BME280;51842;47.450;8.654;2022-10-22T03:30:43;95515.28;;;12.77;100.00
44297;BME280;51842;47.450;8.654;2022-10-22T03:33:08;95518.22;;;12.75;100.00
44297;BME280;51842;47.450;8.654;2022-10-22T03:35:46;95517.72;;;12.73;100.00
44297;BME280;51842;47.450;8.654;2022-10-22T03:38:13;95517.19;;;12.71;100.00
44297;BME280;51842;47.450;8.654;2022-10-22T03:40:41;95518.56;;;12.68;100.00
44297;BME280;51842;47.450;8.654;2022-10-22T03:43:12;95528.19;;;12.69;100.00
44297;BME280;51842;47.450;8.654;2022-10-22T03:45:38;95518.56;;;12.68;100.00
44297;BME280;51842;47.450;8.654;2022-10-22T03:48:21;95527.66;;;12.67;100.00
44297;BME280;51842;47.450;8.654;2022-10-22T03:50:50;95526.88;;;12.67;100.00
44297;BME280;51842;47.450;8.654;2022-10-22T03:53:28;95522.56;;;12.66;100.00
44297;BME280;51842;47.450;8.654;2022-10-22T03:55:56;95529.31;;;12.58;100.00
44297;BME280;51842;47.450;8.654;2022-10-22T03:58:28;95522.34;;;12.62;100.00
44297;BME280;51842;47.450;8.654;2022-10-22T04:00:54;95531.16;;;12.63;100.00
44297;BME280;51842;47.450;8.654;2022-10-22T04:03:22;95527.97;;;12.61;100.00
44297;BME280;51842;47.450;8.654;2022-10-22T04:06:03;95526.38;;;12.60;100.00
44297;BME280;51842;47.450;8.654;2022-10-22T04:08:29;95516.75;;;12.59;100.00
44297;BME280;51842;47.450;8.654;2022-10-22T04:11:00;95513.84;;;12.55;100.00
44297;BME280;51842;47.450;8.654;2022-10-22T04:13:26;95511.97;;;12.56;100.00
44297;BME280;51842;47.450;8.654;2022-10-22T04:15:53;95514.41;;;12.52;100.00
44297;BME280;51842;47.450;8.654;2022-10-22T04:18:24;95516.28;;;12.52;100.00
44297;BME280;51842;47.450;8.654;2022-10-22T04:20:56;95523.50;;;12.51;100.00
44297;BME280;51842;47.450;8.654;2022-10-22T04:23:24;95530.44;;;12.52;100.00
44297;BME280;51842;47.450;8.654;2022-10-22T04:26:01;95532.84;;;12.54;100.00
44297;BME280;51842;47.450;8.654;2022-10-22T04:28:30;95528.56;;;12.53;100.00
44297;BME280;51842;47.450;8.654;2022-10-22T04:30:58;95540.03;;;12.53;100.00
44297;BME280;51842;47.450;8.654;2022-10-22T04:33:26;95539.25;;;12.53;100.00
44297;BME280;51842;47.450;8.654;2022-10-22T04:35:52;95538.97;;;12.54;100.00
44297;BME280;51842;47.450;8.654;2022-10-22T04:38:20;95545.91;;;12.55;100.00
44297;BME280;51842;47.450;8.654;2022-10-22T04:40:48;95542.44;;;12.55;100.00
44297;BME280;51842;47.450;8.654;2022-10-22T04:43:17;95550.47;;;12.55;100.00
44297;BME280;51842;47.450;8.654;2022-10-22T04:45:43;95548.88;;;12.54;100.00
44297;BME280;51842;47.450;8.654;2022-10-22T04:48:24;95547.00;;;12.54;100.00
44297;BME280;51842;47.450;8.654;2022-10-22T04:50:49;95542.44;;;12.55;100.00
44297;BME280;51842;47.450;8.654;2022-10-22T04:53:15;95549.66;;;12.54;100.00
44297;BME280;51842;47.450;8.654;2022-10-22T04:55:41;95553.69;;;12.52;100.00
44297;BME280;51842;47.450;8.654;2022-10-22T04:58:09;95555.56;;;12.51;100.00
44297;BME280;51842;47.450;8.654;2022-10-22T05:00:37;95554.47;;;12.52;100.00
44297;BME280;51842;47.450;8.654;2022-10-22T05:03:17;95559.59;;;12.48;100.00
44297;BME280;51842;47.450;8.654;2022-10-22T05:05:46;95559.84;;;12.47;100.00
44297;BME280;51842;47.450;8.654;2022-10-22T05:08:12;95551.00;;;12.52;100.00
44297;BME280;51842;47.450;8.654;2022-10-22T05:10:40;95555.56;;;12.51;100.00
44297;BME280;51842;47.450;8.654;2022-10-22T05:13:06;95550.78;;;12.48;100.00
44297;BME280;51842;47.450;8.654;2022-10-22T05:15:38;95555.31;;;12.47;100.00
44297;BME280;51842;47.450;8.654;2022-10-22T05:18:03;95560.13;;;12.45;100.00
44297;BME280;51842;47.450;8.654;2022-10-22T05:20:39;95564.16;;;12.43;100.00
44297;BME280;51842;47.450;8.654;2022-10-22T05:23:08;95580.97;;;12.43;100.00
44297;BME280;51842;47.450;8.654;2022-10-22T05:25:38;95589.81;;;12.39;100.00
44297;BME280;51842;47.450;8.654;2022-10-22T05:28:06;95586.06;;;12.40;100.00
44297;BME280;51842;47.450;8.654;2022-10-22T05:30:37;95587.66;;;12.41;100.00
44297;BME280;51842;47.450;8.654;2022-10-22T05:33:03;95587.41;;;12.37;100.00
44297;BME280;51842;47.450;8.654;2022-10-22T05:35:29;95595.72;;;12.36;100.00
44297;BME280;51842;47.450;8.654;2022-10-22T05:37:59;95593.84;;;12.36;100.00
44297;BME280;51842;47.450;8.654;2022-10-22T05:40:28;95595.44;;;12.37;100.00
44297;BME280;51842;47.450;8.654;2022-10-22T05:42:53;95597.84;;;12.39;100.00
44297;BME280;51842;47.450;8.654;2022-10-22T05:45:19;95605.06;;;12.38;100.00
44297;BME280;51842;47.450;8.654;2022-10-22T05:47:48;95594.38;;;12.33;100.00
44297;BME280;51842;47.450;8.654;2022-10-22T05:50:16;95596.25;;;12.33;100.00
44297;BME280;51842;47.450;8.654;2022-10-22T05:52:42;95607.75;;;12.33;100.00
44297;BME280;51842;47.450;8.654;2022-10-22T05:55:14;95604.00;;;12.34;100.00
44297;BME280;51842;47.450;8.654;2022-10-22T05:57:46;95599.72;;;12.33;100.00
44297;BME280;51842;47.450;8.654;2022-10-22T06:00:14;95608.03;;;12.26;100.00
44297;BME280;51842;47.450;8.654;2022-10-22T06:02:50;95617.66;;;12.27;100.00
44297;BME280;51842;47.450;8.654;2022-10-22T06:05:18;95616.84;;;12.27;100.00
44297;BME280;51842;47.450;8.654;2022-10-22T06:07:50;95618.97;;;12.25;100.00
44297;BME280;51842;47.450;8.654;2022-10-22T06:10:19;95632.63;;;12.23;100.00
44297;BME280;51842;47.450;8.654;2022-10-22T06:12:49;95616.06;;;12.21;100.00
44297;BME280;51842;47.450;8.654;2022-10-22T06:15:20;95618.22;;;12.19;100.00
44297;BME280;51842;47.450;8.654;2022-10-22T06:17:47;95616.34;;;12.20;100.00
44297;BME280;51842;47.450;8.654;2022-10-22T06:20:13;95611.53;;;12.22;100.00
44297;BME280;51842;47.450;8.654;2022-10-22T06:22:39;95616.63;;;12.18;100.00
44297;BME280;51842;47.450;8.654;2022-10-22T06:25:11;95611.00;;;12.20;100.00
44297;BME280;51842;47.450;8.654;2022-10-22T06:27:40;95604.34;;;12.17;100.00
44297;BME280;51842;47.450;8.654;2022-10-22T06:30:12;95593.13;;;12.15;100.00
44297;BME280;51842;47.450;8.654;2022-10-22T06:32:38;95592.63;;;12.08;100.00
44297;BME280;51842;47.450;8.654;2022-10-22T06:35:04;95600.09;;;12.11;100.00
44297;BME280;51842;47.450;8.654;2022-10-22T06:37:33;95607.31;;;12.11;100.00
44297;BME280;51842;47.450;8.654;2022-10-22T06:39:59;95620.63;;;12.16;100.00
44297;BME280;51842;47.450;8.654;2022-10-22T06:42:24;95634.50;;;12.18;100.00
44297;BME280;51842;47.450;8.654;2022-10-22T06:44:50;95643.31;;;12.18;100.00
44297;BME280;51842;47.450;8.654;2022-10-22T06:47:16;95653.50;;;12.16;100.00
44297;BME280;51842;47.450;8.654;2022-10-22T06:49:48;95671.63;;;12.19;100.00
44297;BME280;51842;47.450;8.654;2022-10-22T06:52:17;95675.91;;;12.20;100.00
44297;BME280;51842;47.450;8.654;2022-10-22T06:55:01;95672.69;;;12.23;100.00
44297;BME280;51842;47.450;8.654;2022-10-22T06:57:26;95667.88;;;12.25;100.00
44297;BME280;51842;47.450;8.654;2022-10-22T06:59:54;95669.19;;;12.28;100.00
44297;BME280;51842;47.450;8.654;2022-10-22T07:02:19;95681.75;;;12.33;100.00
44297;BME280;51842;47.450;8.654;2022-10-22T07:04:48;95687.63;;;12.30;100.00
44297;BME280;51842;47.450;8.654;2022-10-22T07:07:14;95690.28;;;12.30;100.00
44297;BME280;51842;47.450;8.654;2022-10-22T07:09:40;95690.28;;;12.30;100.00
44297;BME280;51842;47.450;8.654;2022-10-22T07:12:15;95701.47;;;12.37;100.00
44297;BME280;51842;47.450;8.654;2022-10-22T07:14:42;95702.25;;;12.42;100.00
44297;BME280;51842;47.450;8.654;2022-10-22T07:17:08;95697.41;;;12.49;100.00
44297;BME280;51842;47.450;8.654;2022-10-22T07:19:37;95693.72;;;12.45;100.00
44297;BME280;51842;47.450;8.654;2022-10-22T07:22:03;95699.31;;;12.49;100.00
44297;BME280;51842;47.450;8.654;2022-10-22T07:24:31;95706.78;;;12.52;100.00
44297;BME280;51842;47.450;8.654;2022-10-22T07:26:57;95704.34;;;12.61;100.00
44297;BME280;51842;47.450;8.654;2022-10-22T07:29:29;95703.78;;;12.64;100.00
44297;BME280;51842;47.450;8.654;2022-10-22T07:31:54;95702.16;;;12.73;100.00
44297;BME280;51842;47.450;8.654;2022-10-22T07:34:32;95702.88;;;12.84;100.00
44297;BME280;51842;47.450;8.654;2022-10-22T07:36:57;95701.22;;;12.93;100.00
44297;BME280;51842;47.450;8.654;2022-10-22T07:39:24;95706.50;;;13.03;100.00
44297;BME280;51842;47.450;8.654;2022-10-22T07:41:56;95704.84;;;13.12;100.00
44297;BME280;51842;47.450;8.654;2022-10-22T07:44:22;95710.19;;;13.17;100.00
44297;BME280;51842;47.450;8.654;2022-10-22T07:46:47;95713.91;;;13.27;100.00
44297;BME280;51842;47.450;8.654;2022-10-22T07:49:30;95710.34;;;13.36;100.00
44297;BME280;51842;47.450;8.654;2022-10-22T07:51:59;95710.03;;;13.43;100.00
44297;BME280;51842;47.450;8.654;2022-10-22T07:54:25;95721.88;;;13.66;100.00
44297;BME280;51842;47.450;8.654;2022-10-22T07:56:54;95721.75;;;13.81;100.00
44297;BME280;51842;47.450;8.654;2022-10-22T07:59:20;95734.63;;;14.08;100.00
44297;BME280;51842;47.450;8.654;2022-10-22T08:01:48;95728.75;;;14.35;100.00
44297;BME280;51842;47.450;8.654;2022-10-22T08:04:23;95730.88;;;14.63;100.00
44297;BME280;51842;47.450;8.654;2022-10-22T08:06:49;95729.88;;;14.77;98.29
44297;BME280;51842;47.450;8.654;2022-10-22T08:09:21;95724.34;;;14.93;95.95
44297;BME280;51842;47.450;8.654;2022-10-22T08:11:52;95730.00;;;15.29;95.74
44297;BME280;51842;47.450;8.654;2022-10-22T08:14:24;95730.84;;;15.62;92.43
44297;BME280;51842;47.450;8.654;2022-10-22T08:16:53;95726.31;;;15.95;90.79
44297;BME280;51842;47.450;8.654;2022-10-22T08:19:19;95730.84;;;16.28;88.45
44297;BME280;51842;47.450;8.654;2022-10-22T08:21:54;95734.34;;;16.56;86.50
44297;BME280;51842;47.450;8.654;2022-10-22T08:24:23;95739.84;;;16.64;85.36
44297;BME280;51842;47.450;8.654;2022-10-22T08:26:53;95737.53;;;16.72;85.03
44297;BME280;51842;47.450;8.654;2022-10-22T08:29:22;95736.66;;;16.76;85.22
44297;BME280;51842;47.450;8.654;2022-10-22T08:31:51;95747.66;;;16.80;85.04
44297;BME280;51842;47.450;8.654;2022-10-22T08:34:18;95743.53;;;16.69;84.76
44297;BME280;51842;47.450;8.654;2022-10-22T08:36:44;95735.53;;;16.63;85.19
44297;BME280;51842;47.450;8.654;2022-10-22T08:39:16;95745.63;;;16.58;84.75
44297;BME280;51842;47.450;8.654;2022-10-22T08:42:11;95739.53;;;16.66;84.54
44297;BME280;51842;47.450;8.654;2022-10-22T08:48:28;95741.22;;;17.03;84.24
44297;BME280;51842;47.450;8.654;2022-10-22T08:50:57;95742.38;;;17.25;82.17
44297;BME280;51842;47.450;8.654;2022-10-22T08:53:37;95748.13;;;17.46;81.99
44297;BME280;51842;47.450;8.654;2022-10-22T08:56:34;95751.56;;;17.60;77.89
44297;BME280;51842;47.450;8.654;2022-10-22T09:01:48;95752.31;;;18.19;76.27
44297;BME280;51842;47.450;8.654;2022-10-22T09:04:50;95757.88;;;18.54;71.85
44297;BME280;51842;47.450;8.654;2022-10-22T09:07:21;95751.34;;;18.86;71.35
44297;BME280;51842;47.450;8.654;2022-10-22T09:09:51;95754.91;;;19.13;68.29
44297;BME280;51842;47.450;8.654;2022-10-22T09:12:25;95749.41;;;19.44;68.55
44297;BME280;51842;47.450;8.654;2022-10-22T09:15:12;95759.44;;;19.78;68.19
44297;BME280;51842;47.450;8.654;2022-10-22T09:20:40;95760.09;;;19.75;67.34
44297;BME280;51842;47.450;8.654;2022-10-22T09:26:18;95764.59;;;20.44;64.31
44297;BME280;51842;47.450;8.654;2022-10-22T09:28:49;95770.31;;;20.51;64.78
44297;BME280;51842;47.450;8.654;2022-10-22T09:31:18;95770.72;;;20.71;61.29
44297;BME280;51842;47.450;8.654;2022-10-22T09:33:50;95770.94;;;20.40;61.52
44297;BME280;51842;47.450;8.654;2022-10-22T09:36:21;95767.75;;;20.46;62.41
44297;BME280;51842;47.450;8.654;2022-10-22T09:38:52;95776.34;;;20.57;62.93
44297;BME280;51842;47.450;8.654;2022-10-22T09:41:22;95777.41;;;20.73;63.11
44297;BME280;51842;47.450;8.654;2022-10-22T09:43:51;95768.66;;;20.68;61.53
44297;BME280;51842;47.450;8.654;2022-10-22T09:46:28;95772.50;;;20.96;60.70
44297;BME280;51842;47.450;8.654;2022-10-22T09:49:09;95771.38;;;21.06;61.08
44297;BME280;51842;47.450;8.654;2022-10-22T09:52:00;95768.94;;;21.43;60.07
44297;BME280;51842;47.450;8.654;2022-10-22T09:54:39;95771.94;;;21.50;59.47
44297;BME280;51842;47.450;8.654;2022-10-22T09:57:19;95775.44;;;21.51;59.55
44297;BME280;51842;47.450;8.654;2022-10-22T09:59:49;95777.47;;;21.54;58.87
44297;BME280;51842;47.450;8.654;2022-10-22T10:02:28;95775.34;;;21.80;56.91
44297;BME280;51842;47.450;8.654;2022-10-22T10:05:03;95776.97;;;21.81;56.78
44297;BME280;51842;47.450;8.654;2022-10-22T10:07:34;95782.03;;;21.62;57.29
44297;BME280;51842;47.450;8.654;2022-10-22T10:10:01;95784.75;;;21.62;58.74
44297;BME280;51842;47.450;8.654;2022-10-22T10:25:31;95790.88;;;22.46;56.23
44297;BME280;51842;47.450;8.654;2022-10-22T10:28:33;95789.78;;;22.72;56.15
44297;BME280;51842;47.450;8.654;2022-10-22T10:35:01;95788.97;;;22.59;55.39
44297;BME280;51842;47.450;8.654;2022-10-22T10:37:25;95791.50;;;22.31;55.18
44297;BME280;51842;47.450;8.654;2022-10-22T10:40:58;95795.16;;;22.14;54.75
44297;BME280;51842;47.450;8.654;2022-10-22T10:49:31;95783.00;;;22.20;57.12
44297;BME280;51842;47.450;8.654;2022-10-22T10:52:27;95788.88;;;22.55;56.50
44297;BME280;51842;47.450;8.654;2022-10-22T10:55:26;95791.03;;;22.62;52.87
44297;BME280;51842;47.450;8.654;2022-10-22T11:01:02;95790.75;;;21.88;55.35
44297;BME280;51842;47.450;8.654;2022-10-22T11:06:24;95783.78;;;22.54;54.89
44297;BME280;51842;47.450;8.654;2022-10-22T11:09:04;95786.09;;;22.89;53.22
44297;BME280;51842;47.450;8.654;2022-10-22T11:12:15;95782.38;;;23.05;51.80
44297;BME280;51842;47.450;8.654;2022-10-22T11:18:19;95782.13;;;22.86;52.12
44297;BME280;51842;47.450;8.654;2022-10-22T11:23:40;95777.97;;;22.10;54.96
44297;BME280;51842;47.450;8.654;2022-10-22T11:28:57;95770.28;;;21.58;55.56
44297;BME280;51842;47.450;8.654;2022-10-22T11:31:25;95777.78;;;21.52;56.76
44297;BME280;51842;47.450;8.654;2022-10-22T11:36:47;95773.47;;;22.14;56.57
44297;BME280;51842;47.450;8.654;2022-10-22T11:39:56;95766.84;;;22.69;52.81
44297;BME280;51842;47.450;8.654;2022-10-22T11:42:48;95761.44;;;22.81;52.39
44297;BME280;51842;47.450;8.654;2022-10-22T11:50:47;95754.44;;;23.17;49.35
44297;BME280;51842;47.450;8.654;2022-10-22T11:53:57;95745.34;;;23.38;50.61
44297;BME280;51842;47.450;8.654;2022-10-22T11:56:39;95761.59;;;23.74;49.16
44297;BME280;51842;47.450;8.654;2022-10-22T11:59:39;95756.75;;;23.96;48.42
44297;BME280;51842;47.450;8.654;2022-10-22T12:16:25;95739.78;;;24.90;47.90
44297;BME280;51842;47.450;8.654;2022-10-22T12:21:46;95732.38;;;25.38;44.59
44297;BME280;51842;47.450;8.654;2022-10-22T12:24:18;95740.41;;;25.51;43.99
44297;BME280;51842;47.450;8.654;2022-10-22T12:26:50;95744.75;;;25.71;44.10
44297;BME280;51842;47.450;8.654;2022-10-22T12:29:19;95742.00;;;25.71;45.11
44297;BME280;51842;47.450;8.654;2022-10-22T12:31:54;95745.81;;;25.67;43.87
44297;BME280;51842;47.450;8.654;2022-10-22T12:34:23;95734.28;;;25.38;42.87
44297;BME280;51842;47.450;8.654;2022-10-22T12:36:52;95743.38;;;25.10;44.41
44297;BME280;51842;47.450;8.654;2022-10-22T12:39:40;95743.41;;;24.95;46.75
44297;BME280;51842;47.450;8.654;2022-10-22T12:42:15;95745.47;;;25.33;43.08
44297;BME280;51842;47.450;8.654;2022-10-22T12:44:43;95741.09;;;25.64;44.60
44297;BME280;51842;47.450;8.654;2022-10-22T12:47:27;95728.00;;;25.53;44.73
44297;BME280;51842;47.450;8.654;2022-10-22T12:49:57;95734.50;;;25.84;43.07
44297;BME280;51842;47.450;8.654;2022-10-22T12:52:23;95739.63;;;25.86;43.31
44297;BME280;51842;47.450;8.654;2022-10-22T12:54:56;95746.13;;;25.81;43.05
44297;BME280;51842;47.450;8.654;2022-10-22T12:57:26;95733.69;;;25.64;42.08
44297;BME280;51842;47.450;8.654;2022-10-22T12:59:52;95737.72;;;25.70;42.93
44297;BME280;51842;47.450;8.654;2022-10-22T13:02:22;95726.38;;;25.88;43.65
44297;BME280;51842;47.450;8.654;2022-10-22T13:05:23;95729.53;;;26.09;41.29
44297;BME280;51842;47.450;8.654;2022-10-22T13:10:39;95725.31;;;25.92;42.64
44297;BME280;51842;47.450;8.654;2022-10-22T13:13:32;95712.88;;;25.95;43.38
44297;BME280;51842;47.450;8.654;2022-10-22T13:16:23;95724.81;;;26.06;40.91
44297;BME280;51842;47.450;8.654;2022-10-22T13:18:51;95715.91;;;25.90;42.76
44297;BME280;51842;47.450;8.654;2022-10-22T13:21:37;95716.63;;;25.87;42.77
44297;BME280;51842;47.450;8.654;2022-10-22T13:24:24;95711.53;;;25.85;43.25
44297;BME280;51842;47.450;8.654;2022-10-22T13:26:53;95710.47;;;25.90;42.54
44297;BME280;51842;47.450;8.654;2022-10-22T13:29:22;95710.72;;;25.65;41.17
44297;BME280;51842;47.450;8.654;2022-10-22T13:31:56;95704.22;;;25.89;42.71
44297;BME280;51842;47.450;8.654;2022-10-22T13:34:24;95701.25;;;25.98;42.28
44297;BME280;51842;47.450;8.654;2022-10-22T13:36:51;95712.34;;;25.86;41.35
44297;BME280;51842;47.450;8.654;2022-10-22T13:39:20;95702.72;;;25.56;40.77
44297;BME280;51842;47.450;8.654;2022-10-22T13:41:49;95690.25;;;25.75;43.30
44297;BME280;51842;47.450;8.654;2022-10-22T13:44:17;95689.69;;;25.85;41.88
44297;BME280;51842;47.450;8.654;2022-10-22T13:46:45;95684.16;;;25.81;40.36
44297;BME280;51842;47.450;8.654;2022-10-22T13:49:18;95684.94;;;25.62;41.92
44297;BME280;51842;47.450;8.654;2022-10-22T13:51:48;95687.47;;;25.52;43.33
44297;BME280;51842;47.450;8.654;2022-10-22T13:54:28;95689.47;;;25.55;42.62
44297;BME280;51842;47.450;8.654;2022-10-22T13:56:56;95695.41;;;25.41;45.45
44297;BME280;51842;47.450;8.654;2022-10-22T13:59:24;95690.25;;;25.36;44.35
44297;BME280;51842;47.450;8.654;2022-10-22T14:01:51;95691.09;;;25.21;42.51
44297;BME280;51842;47.450;8.654;2022-10-22T14:04:22;95690.19;;;25.32;45.05
44297;BME280;51842;47.450;8.654;2022-10-22T14:06:54;95680.91;;;25.37;45.89
44297;BME280;51842;47.450;8.654;2022-10-22T14:09:29;95688.09;;;25.45;43.25
44297;BME280;51842;47.450;8.654;2022-10-22T14:11:55;95681.47;;;25.27;42.83
44297;BME280;51842;47.450;8.654;2022-10-22T14:14:25;95679.41;;;25.04;44.16
44297;BME280;51842;47.450;8.654;2022-10-22T14:16:57;95683.06;;;25.12;44.69
44297;BME280;51842;47.450;8.654;2022-10-22T14:19:28;95689.22;;;25.09;44.60
44297;BME280;51842;47.450;8.654;2022-10-22T14:21:58;95691.00;;;25.01;45.56
44297;BME280;51842;47.450;8.654;2022-10-22T14:24:41;95682.69;;;24.78;45.58
44297;BME280;51842;47.450;8.654;2022-10-22T14:27:14;95678.16;;;24.66;45.65
44297;BME280;51842;47.450;8.654;2022-10-22T14:29:43;95682.97;;;24.41;43.35
44297;BME280;51842;47.450;8.654;2022-10-22T14:32:13;95683.28;;;24.24;46.65
44297;BME280;51842;47.450;8.654;2022-10-22T14:34:40;95681.41;;;24.12;45.31
44297;BME280;51842;47.450;8.654;2022-10-22T14:37:18;95677.63;;;24.01;44.47
44297;BME280;51842;47.450;8.654;2022-10-22T14:39:45;95683.00;;;23.97;46.77
44297;BME280;51842;47.450;8.654;2022-10-22T14:42:12;95678.25;;;23.94;47.46
44297;BME280;51842;47.450;8.654;2022-10-22T14:44:41;95674.28;;;23.92;45.44
44297;BME280;51842;47.450;8.654;2022-10-22T14:47:10;95674.75;;;23.82;47.31
44297;BME280;51842;47.450;8.654;2022-10-22T14:49:43;95678.63;;;23.81;47.99
44297;BME280;51842;47.450;8.654;2022-10-22T14:52:09;95675.38;;;23.75;48.04
44297;BME280;51842;47.450;8.654;2022-10-22T14:54:41;95678.47;;;23.61;48.61
44297;BME280;51842;47.450;8.654;2022-10-22T14:57:10;95666.94;;;23.52;47.78
44297;BME280;51842;47.450;8.654;2022-10-22T14:59:41;95679.19;;;23.46;49.02
44297;BME280;51842;47.450;8.654;2022-10-22T15:02:16;95677.94;;;23.43;47.46
44297;BME280;51842;47.450;8.654;2022-10-22T15:04:41;95674.47;;;23.30;46.40